sensor_id;sensor_type;location;lat;lon;timestamp;pressure;altitude;pressure_sealevel;temperature;humidity
5484;BME280;2764;48.794;8.326;2022-08-05T00:00:50;99478.44;;;24.15;53.14
5484;BME280;2764;48.794;8.326;2022-08-05T00:01:52;99477.91;;;24.11;53.93
5484;BME280;2764;48.794;8.326;2022-08-05T00:02:54;99479.72;;;24.11;54.39
5484;BME280;2764;48.794;8.326;2022-08-05T00:03:56;99484.56;;;24.07;53.06
5484;BME280;2764;48.794;8.326;2022-08-05T00:04:58;99479.38;;;24.06;53.13
5484;BME280;2764;48.794;8.326;2022-08-05T00:05:59;99477.97;;;24.02;52.96
5484;BME280;2764;48.794;8.326;2022-08-05T00:07:21;99484.00;;;24.04;52.79
5484;BME280;2764;48.794;8.326;2022-08-05T00:08:43;99482.34;;;24.03;53.02
5484;BME280;2764;48.794;8.326;2022-08-05T00:09:47;99481.47;;;23.94;53.07
5484;BME280;2764;48.794;8.326;2022-08-05T00:10:49;99495.69;;;24.03;52.79
5484;BME280;2764;48.794;8.326;2022-08-05T00:11:50;99489.66;;;24.01;52.94
5484;BME280;2764;48.794;8.326;2022-08-05T00:13:00;99496.22;;;24.06;53.84
5484;BME280;2764;48.794;8.326;2022-08-05T00:14:03;99494.22;;;24.08;53.58
5484;BME280;2764;48.794;8.326;2022-08-05T00:15:17;99490.09;;;24.14;52.35
5484;BME280;2764;48.794;8.326;2022-08-05T00:16:38;99494.28;;;24.16;54.07
5484;BME280;2764;48.794;8.326;2022-08-05T00:17:53;99496.28;;;24.14;53.91
5484;BME280;2764;48.794;8.326;2022-08-05T00:18:55;99497.44;;;24.12;53.29
5484;BME280;2764;48.794;8.326;2022-08-05T00:19:57;99489.91;;;24.07;53.70
5484;BME280;2764;48.794;8.326;2022-08-05T00:21:04;99493.69;;;24.05;53.22
5484;BME280;2764;48.794;8.326;2022-08-05T00:22:08;99483.31;;;24.02;52.21
5484;BME280;2764;48.794;8.326;2022-08-05T00:23:11;99489.19;;;24.05;52.56
5484;BME280;2764;48.794;8.326;2022-08-05T00:24:13;99487.69;;;24.03;53.41
5484;BME280;2764;48.794;8.326;2022-08-05T00:25:24;99493.69;;;24.05;54.69
5484;BME280;2764;48.794;8.326;2022-08-05T00:26:41;99491.19;;;24.03;54.31
5484;BME280;2764;48.794;8.326;2022-08-05T00:27:52;99499.50;;;24.00;54.09
5484;BME280;2764;48.794;8.326;2022-08-05T00:28:55;99490.97;;;23.97;54.22
5484;BME280;2764;48.794;8.326;2022-08-05T00:29:57;99498.97;;;23.97;53.51
5484;BME280;2764;48.794;8.326;2022-08-05T00:31:04;99506.19;;;23.96;53.69
5484;BME280;2764;48.794;8.326;2022-08-05T00:32:08;99503.50;;;23.96;54.47
5484;BME280;2764;48.794;8.326;2022-08-05T00:33:16;99507.31;;;23.94;56.62
5484;BME280;2764;48.794;8.326;2022-08-05T00:34:39;99517.63;;;23.89;56.13
5484;BME280;2764;48.794;8.326;2022-08-05T00:36:01;99508.88;;;23.79;55.99
5484;BME280;2764;48.794;8.326;2022-08-05T00:37:22;99537.94;;;23.82;56.71
5484;BME280;2764;48.794;8.326;2022-08-05T00:38:24;99531.94;;;23.80;56.15
5484;BME280;2764;48.794;8.326;2022-08-05T00:39:34;99532.09;;;23.78;53.74
5484;BME280;2764;48.794;8.326;2022-08-05T00:40:51;99540.94;;;23.79;53.92
5484;BME280;2764;48.794;8.326;2022-08-05T00:41:53;99547.28;;;23.78;54.42
5484;BME280;2764;48.794;8.326;2022-08-05T00:42:58;99545.91;;;23.73;55.15
5484;BME280;2764;48.794;8.326;2022-08-05T00:44:00;99552.75;;;23.76;55.44
5484;BME280;2764;48.794;8.326;2022-08-05T00:45:03;99549.88;;;23.69;56.01
5484;BME280;2764;48.794;8.326;2022-08-05T00:46:11;99555.00;;;23.63;56.29
5484;BME280;2764;48.794;8.326;2022-08-05T00:47:14;99554.47;;;23.59;56.90
5484;BME280;2764;48.794;8.326;2022-08-05T00:48:18;99576.59;;;23.52;57.72
5484;BME280;2764;48.794;8.326;2022-08-05T00:49:28;99530.34;;;23.34;58.33
5484;BME280;2764;48.794;8.326;2022-08-05T00:50:33;99555.31;;;23.42;58.19
5484;BME280;2764;48.794;8.326;2022-08-05T00:51:36;99550.25;;;23.39;57.26
5484;BME280;2764;48.794;8.326;2022-08-05T00:52:52;99540.59;;;23.38;57.17
5484;BME280;2764;48.794;8.326;2022-08-05T00:53:55;99547.59;;;23.39;57.73
5484;BME280;2764;48.794;8.326;2022-08-05T00:55:03;99547.75;;;23.38;58.65
5484;BME280;2764;48.794;8.326;2022-08-05T00:56:05;99540.03;;;23.35;57.27
5484;BME280;2764;48.794;8.326;2022-08-05T00:57:08;99552.41;;;23.36;57.09
5484;BME280;2764;48.794;8.326;2022-08-05T00:58:11;99551.31;;;23.29;57.11
5484;BME280;2764;48.794;8.326;2022-08-05T00:59:13;99553.69;;;23.32;58.55
5484;BME280;2764;48.794;8.326;2022-08-05T01:00:15;99555.78;;;23.28;58.68
5484;BME280;2764;48.794;8.326;2022-08-05T01:01:17;99547.41;;;23.23;59.35
5484;BME280;2764;48.794;8.326;2022-08-05T01:02:39;99537.50;;;23.16;59.88
5484;BME280;2764;48.794;8.326;2022-08-05T01:03:42;99537.28;;;23.09;58.44
5484;BME280;2764;48.794;8.326;2022-08-05T01:04:50;99539.94;;;23.09;58.07
5484;BME280;2764;48.794;8.326;2022-08-05T01:05:52;99540.63;;;23.11;58.38
5484;BME280;2764;48.794;8.326;2022-08-05T01:06:55;99542.16;;;23.14;58.26
5484;BME280;2764;48.794;8.326;2022-08-05T01:07:56;99547.78;;;23.11;58.43
5484;BME280;2764;48.794;8.326;2022-08-05T01:09:18;99550.91;;;23.06;58.57
5484;BME280;2764;48.794;8.326;2022-08-05T01:10:26;99557.91;;;23.07;60.02
5484;BME280;2764;48.794;8.326;2022-08-05T01:11:32;99548.41;;;23.04;60.38
5484;BME280;2764;48.794;8.326;2022-08-05T01:12:43;99546.56;;;23.05;58.06
5484;BME280;2764;48.794;8.326;2022-08-05T01:15:11;99539.00;;;23.00;59.40
5484;BME280;2764;48.794;8.326;2022-08-05T01:16:42;99548.97;;;22.98;58.93
5484;BME280;2764;48.794;8.326;2022-08-05T01:17:55;99543.81;;;22.97;58.44
5484;BME280;2764;48.794;8.326;2022-08-05T01:19:10;99548.75;;;22.92;58.82
5484;BME280;2764;48.794;8.326;2022-08-05T01:28:36;99553.50;;;22.71;59.60
5484;BME280;2764;48.794;8.326;2022-08-05T01:29:44;99552.66;;;22.70;60.96
5484;BME280;2764;48.794;8.326;2022-08-05T01:31:00;99551.44;;;22.65;59.95
5484;BME280;2764;48.794;8.326;2022-08-05T01:32:08;99555.22;;;22.62;60.22
5484;BME280;2764;48.794;8.326;2022-08-05T01:33:13;99542.59;;;22.55;62.06
5484;BME280;2764;48.794;8.326;2022-08-05T01:34:46;99540.38;;;22.50;62.81
5484;BME280;2764;48.794;8.326;2022-08-05T01:35:52;99554.81;;;22.48;62.02
5484;BME280;2764;48.794;8.326;2022-08-05T01:37:04;99538.84;;;22.48;61.24
5484;BME280;2764;48.794;8.326;2022-08-05T01:38:10;99543.31;;;22.47;62.24
5484;BME280;2764;48.794;8.326;2022-08-05T01:39:30;99540.81;;;22.46;62.51
5484;BME280;2764;48.794;8.326;2022-08-05T01:40:48;99544.47;;;22.45;62.13
5484;BME280;2764;48.794;8.326;2022-08-05T01:41:53;99533.66;;;22.46;61.10
5484;BME280;2764;48.794;8.326;2022-08-05T01:42:58;99538.53;;;22.51;62.61
5484;BME280;2764;48.794;8.326;2022-08-05T01:44:05;99536.56;;;22.53;63.14
5484;BME280;2764;48.794;8.326;2022-08-05T01:45:14;99532.94;;;22.54;62.77
5484;BME280;2764;48.794;8.326;2022-08-05T01:46:17;99530.56;;;22.51;61.27
5484;BME280;2764;48.794;8.326;2022-08-05T01:47:41;99536.28;;;22.56;62.31
5484;BME280;2764;48.794;8.326;2022-08-05T01:48:45;99518.31;;;22.58;61.13
5484;BME280;2764;48.794;8.326;2022-08-05T01:49:51;99525.47;;;22.57;62.20
5484;BME280;2764;48.794;8.326;2022-08-05T01:51:04;99516.63;;;22.57;62.56
5484;BME280;2764;48.794;8.326;2022-08-05T01:52:14;99508.94;;;22.54;62.26
5484;BME280;2764;48.794;8.326;2022-08-05T01:53:20;99520.56;;;22.53;63.41
5484;BME280;2764;48.794;8.326;2022-08-05T01:54:46;99513.28;;;22.55;62.54
5484;BME280;2764;48.794;8.326;2022-08-05T01:55:57;99515.94;;;22.55;62.25
5484;BME280;2764;48.794;8.326;2022-08-05T01:57:05;99509.75;;;22.54;62.04
5484;BME280;2764;48.794;8.326;2022-08-05T01:58:29;99525.75;;;22.54;62.11
5484;BME280;2764;48.794;8.326;2022-08-05T01:59:47;99538.25;;;22.54;61.94
5484;BME280;2764;48.794;8.326;2022-08-05T02:00:50;99547.06;;;22.54;61.93
5484;BME280;2764;48.794;8.326;2022-08-05T02:01:53;99544.41;;;22.54;62.69
5484;BME280;2764;48.794;8.326;2022-08-05T02:03:03;99546.63;;;22.59;64.18
5484;BME280;2764;48.794;8.326;2022-08-05T02:04:27;99544.13;;;22.57;63.47
5484;BME280;2764;48.794;8.326;2022-08-05T02:05:32;99540.78;;;22.55;64.04
5484;BME280;2764;48.794;8.326;2022-08-05T02:06:37;99537.69;;;22.50;62.96
5484;BME280;2764;48.794;8.326;2022-08-05T02:07:40;99541.91;;;22.53;62.82
5484;BME280;2764;48.794;8.326;2022-08-05T02:09:01;99545.41;;;22.53;63.15
5484;BME280;2764;48.794;8.326;2022-08-05T02:10:03;99543.44;;;22.55;63.88
5484;BME280;2764;48.794;8.326;2022-08-05T02:11:11;99545.25;;;22.55;63.61
5484;BME280;2764;48.794;8.326;2022-08-05T02:12:24;99547.63;;;22.58;63.37
5484;BME280;2764;48.794;8.326;2022-08-05T02:13:52;99549.31;;;22.59;63.97
5484;BME280;2764;48.794;8.326;2022-08-05T02:15:02;99536.41;;;22.54;64.16
5484;BME280;2764;48.794;8.326;2022-08-05T02:18:01;99561.09;;;22.66;62.88
5484;BME280;2764;48.794;8.326;2022-08-05T02:20:32;99579.47;;;22.69;62.89
5484;BME280;2764;48.794;8.326;2022-08-05T02:21:43;99576.78;;;22.69;63.20
5484;BME280;2764;48.794;8.326;2022-08-05T02:22:56;99564.88;;;22.63;64.27
5484;BME280;2764;48.794;8.326;2022-08-05T02:24:04;99579.75;;;22.66;64.29
5484;BME280;2764;48.794;8.326;2022-08-05T02:25:16;99575.41;;;22.65;64.01
5484;BME280;2764;48.794;8.326;2022-08-05T02:26:22;99574.41;;;22.66;64.12
5484;BME280;2764;48.794;8.326;2022-08-05T02:27:27;99584.94;;;22.67;63.52
5484;BME280;2764;48.794;8.326;2022-08-05T02:28:51;99581.44;;;22.67;63.49
5484;BME280;2764;48.794;8.326;2022-08-05T02:29:56;99578.22;;;22.63;63.82
5484;BME280;2764;48.794;8.326;2022-08-05T02:31:06;99585.78;;;22.68;64.44
5484;BME280;2764;48.794;8.326;2022-08-05T02:32:17;99589.97;;;22.70;64.12
5484;BME280;2764;48.794;8.326;2022-08-05T02:33:38;99589.84;;;22.72;65.28
5484;BME280;2764;48.794;8.326;2022-08-05T02:34:42;99598.28;;;22.67;64.63
5484;BME280;2764;48.794;8.326;2022-08-05T02:35:57;99580.44;;;22.68;66.02
5484;BME280;2764;48.794;8.326;2022-08-05T02:37:03;99582.28;;;22.67;65.40
5484;BME280;2764;48.794;8.326;2022-08-05T02:38:09;99589.44;;;22.67;66.08
5484;BME280;2764;48.794;8.326;2022-08-05T02:39:15;99580.47;;;22.58;64.19
5484;BME280;2764;48.794;8.326;2022-08-05T02:40:22;99578.78;;;22.57;64.76
5484;BME280;2764;48.794;8.326;2022-08-05T02:41:26;99582.13;;;22.59;65.23
5484;BME280;2764;48.794;8.326;2022-08-05T02:42:37;99575.44;;;22.55;65.13
5484;BME280;2764;48.794;8.326;2022-08-05T02:43:40;99577.53;;;22.52;65.65
5484;BME280;2764;48.794;8.326;2022-08-05T02:45:03;99576.16;;;22.48;65.49
5484;BME280;2764;48.794;8.326;2022-08-05T02:46:08;99566.19;;;22.50;65.60
5484;BME280;2764;48.794;8.326;2022-08-05T02:47:17;99571.81;;;22.47;66.72
5484;BME280;2764;48.794;8.326;2022-08-05T02:48:20;99558.09;;;22.42;66.51
5484;BME280;2764;48.794;8.326;2022-08-05T02:49:33;99551.22;;;22.39;65.98
5484;BME280;2764;48.794;8.326;2022-08-05T02:50:39;99543.38;;;22.38;66.37
5484;BME280;2764;48.794;8.326;2022-08-05T02:51:49;99545.03;;;22.38;66.54
5484;BME280;2764;48.794;8.326;2022-08-05T02:53:04;99544.19;;;22.38;66.03
5484;BME280;2764;48.794;8.326;2022-08-05T02:54:12;99531.03;;;22.36;66.03
5484;BME280;2764;48.794;8.326;2022-08-05T02:55:35;99539.72;;;22.38;65.80
5484;BME280;2764;48.794;8.326;2022-08-05T02:56:55;99533.41;;;22.40;65.60
5484;BME280;2764;48.794;8.326;2022-08-05T02:57:58;99530.44;;;22.43;68.12
5484;BME280;2764;48.794;8.326;2022-08-05T02:59:14;99523.44;;;22.42;65.71
5484;BME280;2764;48.794;8.326;2022-08-05T03:00:18;99524.81;;;22.46;65.62
5484;BME280;2764;48.794;8.326;2022-08-05T03:01:23;99527.03;;;22.50;65.64
5484;BME280;2764;48.794;8.326;2022-08-05T03:02:28;99521.81;;;22.58;65.62
5484;BME280;2764;48.794;8.326;2022-08-05T03:03:32;99526.06;;;22.61;65.62
5484;BME280;2764;48.794;8.326;2022-08-05T03:04:56;99509.97;;;22.70;64.94
5484;BME280;2764;48.794;8.326;2022-08-05T03:05:58;99499.44;;;22.78;65.90
5484;BME280;2764;48.794;8.326;2022-08-05T03:07:21;99497.69;;;22.87;64.90
5484;BME280;2764;48.794;8.326;2022-08-05T03:08:43;99490.91;;;22.92;65.72
5484;BME280;2764;48.794;8.326;2022-08-05T03:09:45;99494.25;;;22.94;65.27
5484;BME280;2764;48.794;8.326;2022-08-05T03:10:52;99483.44;;;22.96;64.84
5484;BME280;2764;48.794;8.326;2022-08-05T03:12:43;99485.81;;;22.99;65.34
5484;BME280;2764;48.794;8.326;2022-08-05T03:13:45;99495.34;;;23.01;64.45
5484;BME280;2764;48.794;8.326;2022-08-05T03:15:04;99487.16;;;23.03;64.29
5484;BME280;2764;48.794;8.326;2022-08-05T03:16:08;99488.03;;;23.03;64.81
5484;BME280;2764;48.794;8.326;2022-08-05T03:17:16;99486.66;;;22.99;64.69
5484;BME280;2764;48.794;8.326;2022-08-05T03:18:20;99481.84;;;23.03;65.55
5484;BME280;2764;48.794;8.326;2022-08-05T03:19:31;99455.47;;;22.82;64.27
5484;BME280;2764;48.794;8.326;2022-08-05T03:20:36;99484.78;;;23.00;64.84
5484;BME280;2764;48.794;8.326;2022-08-05T03:21:48;99493.53;;;23.02;64.56
5484;BME280;2764;48.794;8.326;2022-08-05T03:22:52;99495.72;;;23.07;64.59
5484;BME280;2764;48.794;8.326;2022-08-05T03:23:58;99507.38;;;23.05;64.69
5484;BME280;2764;48.794;8.326;2022-08-05T03:25:03;99510.59;;;23.09;65.40
5484;BME280;2764;48.794;8.326;2022-08-05T03:26:25;99505.09;;;23.11;66.28
5484;BME280;2764;48.794;8.326;2022-08-05T03:27:33;99512.25;;;23.10;66.30
5484;BME280;2764;48.794;8.326;2022-08-05T03:28:54;99507.53;;;23.04;66.04
5484;BME280;2764;48.794;8.326;2022-08-05T03:29:56;99518.59;;;23.09;66.43
5484;BME280;2764;48.794;8.326;2022-08-05T03:31:08;99527.59;;;23.08;66.45
5484;BME280;2764;48.794;8.326;2022-08-05T03:32:19;99522.94;;;23.10;65.86
5484;BME280;2764;48.794;8.326;2022-08-05T03:33:31;99517.75;;;23.09;65.48
5484;BME280;2764;48.794;8.326;2022-08-05T03:34:53;99533.44;;;23.12;66.35
5484;BME280;2764;48.794;8.326;2022-08-05T03:35:56;99544.97;;;23.12;66.31
5484;BME280;2764;48.794;8.326;2022-08-05T03:36:59;99543.97;;;23.13;65.07
5484;BME280;2764;48.794;8.326;2022-08-05T03:38:02;99553.53;;;23.16;64.28
5484;BME280;2764;48.794;8.326;2022-08-05T03:39:07;99559.53;;;23.18;65.21
5484;BME280;2764;48.794;8.326;2022-08-05T03:40:27;99566.69;;;23.17;65.36
5484;BME280;2764;48.794;8.326;2022-08-05T03:41:33;99564.03;;;23.17;65.81
5484;BME280;2764;48.794;8.326;2022-08-05T03:42:47;99571.06;;;23.18;66.05
5484;BME280;2764;48.794;8.326;2022-08-05T03:43:53;99577.38;;;23.17;65.86
5484;BME280;2764;48.794;8.326;2022-08-05T03:45:12;99577.97;;;23.11;67.46
5484;BME280;2764;48.794;8.326;2022-08-05T03:46:23;99590.72;;;23.17;66.73
5484;BME280;2764;48.794;8.326;2022-08-05T03:47:29;99597.75;;;23.18;67.62
5484;BME280;2764;48.794;8.326;2022-08-05T03:48:41;99601.38;;;23.17;66.49
5484;BME280;2764;48.794;8.326;2022-08-05T03:49:45;99595.53;;;23.14;67.82
5484;BME280;2764;48.794;8.326;2022-08-05T03:51:15;99599.00;;;23.14;66.87
5484;BME280;2764;48.794;8.326;2022-08-05T03:52:49;99598.31;;;23.12;68.33
5484;BME280;2764;48.794;8.326;2022-08-05T03:54:22;99610.28;;;23.08;66.77
5484;BME280;2764;48.794;8.326;2022-08-05T03:55:52;99598.94;;;23.06;67.53
5484;BME280;2764;48.794;8.326;2022-08-05T03:57:11;99611.59;;;23.04;68.54
5484;BME280;2764;48.794;8.326;2022-08-05T03:58:21;99602.91;;;23.02;68.31
5484;BME280;2764;48.794;8.326;2022-08-05T04:00:00;99604.16;;;22.98;68.29
5484;BME280;2764;48.794;8.326;2022-08-05T04:01:06;99602.50;;;22.97;68.43
5484;BME280;2764;48.794;8.326;2022-08-05T04:02:12;99598.44;;;22.93;69.05
5484;BME280;2764;48.794;8.326;2022-08-05T04:03:36;99603.91;;;22.91;68.79
5484;BME280;2764;48.794;8.326;2022-08-05T04:04:39;99608.72;;;22.88;68.78
5484;BME280;2764;48.794;8.326;2022-08-05T04:05:45;99610.69;;;22.86;68.52
5484;BME280;2764;48.794;8.326;2022-08-05T04:06:48;99610.97;;;22.83;68.10
5484;BME280;2764;48.794;8.326;2022-08-05T04:07:51;99624.84;;;22.86;68.17
5484;BME280;2764;48.794;8.326;2022-08-05T04:09:00;99624.16;;;22.84;67.98
5484;BME280;2764;48.794;8.326;2022-08-05T04:10:04;99630.34;;;22.85;68.66
5484;BME280;2764;48.794;8.326;2022-08-05T04:11:07;99625.97;;;22.84;67.41
5484;BME280;2764;48.794;8.326;2022-08-05T04:12:10;99639.19;;;22.85;67.16
5484;BME280;2764;48.794;8.326;2022-08-05T04:13:25;99641.69;;;22.87;66.91
5484;BME280;2764;48.794;8.326;2022-08-05T04:14:48;99639.72;;;22.89;66.56
5484;BME280;2764;48.794;8.326;2022-08-05T04:15:50;99651.78;;;22.93;67.21
5484;BME280;2764;48.794;8.326;2022-08-05T04:17:07;99665.81;;;22.95;68.41
5484;BME280;2764;48.794;8.326;2022-08-05T04:18:12;99660.78;;;22.92;68.93
5484;BME280;2764;48.794;8.326;2022-08-05T04:19:27;99680.97;;;22.94;69.05
5484;BME280;2764;48.794;8.326;2022-08-05T04:20:29;99684.63;;;22.93;69.97
5484;BME280;2764;48.794;8.326;2022-08-05T04:21:32;99700.63;;;22.93;69.47
5484;BME280;2764;48.794;8.326;2022-08-05T04:22:53;99708.78;;;22.92;69.98
5484;BME280;2764;48.794;8.326;2022-08-05T04:23:57;99682.47;;;22.70;71.00
5484;BME280;2764;48.794;8.326;2022-08-05T04:25:09;99725.91;;;22.89;70.88
5484;BME280;2764;48.794;8.326;2022-08-05T04:26:12;99728.75;;;22.88;71.03
5484;BME280;2764;48.794;8.326;2022-08-05T04:27:14;99737.72;;;22.87;71.99
5484;BME280;2764;48.794;8.326;2022-08-05T04:28:19;99743.03;;;22.87;70.79
5484;BME280;2764;48.794;8.326;2022-08-05T04:29:31;99743.91;;;22.87;71.30
5484;BME280;2764;48.794;8.326;2022-08-05T04:30:33;99746.41;;;22.89;70.99
5484;BME280;2764;48.794;8.326;2022-08-05T04:31:36;99745.28;;;22.91;71.23
5484;BME280;2764;48.794;8.326;2022-08-05T04:32:39;99757.34;;;22.95;69.82
5484;BME280;2764;48.794;8.326;2022-08-05T04:33:42;99764.91;;;23.00;68.62
5484;BME280;2764;48.794;8.326;2022-08-05T04:35:04;99770.81;;;23.03;69.19
5484;BME280;2764;48.794;8.326;2022-08-05T04:36:06;99770.53;;;23.07;71.11
5484;BME280;2764;48.794;8.326;2022-08-05T04:37:29;99784.69;;;23.07;70.75
5484;BME280;2764;48.794;8.326;2022-08-05T04:38:53;99789.22;;;23.07;68.96
5484;BME280;2764;48.794;8.326;2022-08-05T04:39:58;99795.50;;;23.05;69.49
5484;BME280;2764;48.794;8.326;2022-08-05T04:40:59;99804.22;;;23.08;70.04
5484;BME280;2764;48.794;8.326;2022-08-05T04:42:04;99810.25;;;23.10;69.72
5484;BME280;2764;48.794;8.326;2022-08-05T04:43:06;99822.44;;;23.12;69.61
5484;BME280;2764;48.794;8.326;2022-08-05T04:44:17;99837.06;;;23.18;68.19
5484;BME280;2764;48.794;8.326;2022-08-05T04:45:30;99849.13;;;23.22;68.51
5484;BME280;2764;48.794;8.326;2022-08-05T04:46:49;99843.78;;;23.22;69.35
5484;BME280;2764;48.794;8.326;2022-08-05T04:47:53;99835.94;;;23.20;70.21
5484;BME280;2764;48.794;8.326;2022-08-05T04:48:57;99848.16;;;23.23;69.95
5484;BME280;2764;48.794;8.326;2022-08-05T04:50:00;99863.03;;;23.25;69.65
5484;BME280;2764;48.794;8.326;2022-08-05T04:51:12;99840.53;;;23.28;69.94
5484;BME280;2764;48.794;8.326;2022-08-05T04:52:14;99835.91;;;23.30;69.54
5484;BME280;2764;48.794;8.326;2022-08-05T04:53:17;99838.19;;;23.34;69.43
5484;BME280;2764;48.794;8.326;2022-08-05T04:54:19;99833.38;;;23.38;70.47
5484;BME280;2764;48.794;8.326;2022-08-05T04:55:22;99831.81;;;23.45;69.75
5484;BME280;2764;48.794;8.326;2022-08-05T04:56:44;99835.84;;;23.49;68.98
5484;BME280;2764;48.794;8.326;2022-08-05T04:57:46;99837.53;;;23.59;67.80
5484;BME280;2764;48.794;8.326;2022-08-05T04:58:55;99842.09;;;23.67;67.90
5484;BME280;2764;48.794;8.326;2022-08-05T04:59:56;99834.66;;;23.70;69.98
5484;BME280;2764;48.794;8.326;2022-08-05T05:00:59;99838.00;;;23.72;68.56
5484;BME280;2764;48.794;8.326;2022-08-05T05:02:01;99840.41;;;23.76;67.47
5484;BME280;2764;48.794;8.326;2022-08-05T05:03:23;99834.44;;;23.82;67.12
5484;BME280;2764;48.794;8.326;2022-08-05T05:04:24;99842.03;;;23.86;66.95
5484;BME280;2764;48.794;8.326;2022-08-05T05:05:27;99845.25;;;23.90;67.58
5484;BME280;2764;48.794;8.326;2022-08-05T05:06:29;99845.94;;;23.92;67.54
5484;BME280;2764;48.794;8.326;2022-08-05T05:07:44;99859.66;;;23.97;67.37
5484;BME280;2764;48.794;8.326;2022-08-05T05:08:57;99849.38;;;24.02;67.96
5484;BME280;2764;48.794;8.326;2022-08-05T05:10:00;99845.16;;;24.09;68.40
5484;BME280;2764;48.794;8.326;2022-08-05T05:11:06;99837.13;;;24.09;69.38
5484;BME280;2764;48.794;8.326;2022-08-05T05:12:08;99845.25;;;24.17;68.09
5484;BME280;2764;48.794;8.326;2022-08-05T05:13:14;99846.03;;;24.27;68.51
5484;BME280;2764;48.794;8.326;2022-08-05T05:14:16;99857.50;;;24.37;67.96
5484;BME280;2764;48.794;8.326;2022-08-05T05:15:28;99850.94;;;24.49;66.67
5484;BME280;2764;48.794;8.326;2022-08-05T05:16:50;99849.56;;;24.63;66.24
5484;BME280;2764;48.794;8.326;2022-08-05T05:17:54;99856.25;;;24.76;65.86
5484;BME280;2764;48.794;8.326;2022-08-05T05:18:58;99853.00;;;24.90;65.11
5484;BME280;2764;48.794;8.326;2022-08-05T05:20:19;99855.75;;;24.98;64.53
5484;BME280;2764;48.794;8.326;2022-08-05T05:21:28;99851.78;;;25.02;63.31
5484;BME280;2764;48.794;8.326;2022-08-05T05:22:34;99854.28;;;25.04;64.25
5484;BME280;2764;48.794;8.326;2022-08-05T05:23:41;99854.81;;;25.07;63.83
5484;BME280;2764;48.794;8.326;2022-08-05T05:25:03;99849.44;;;25.07;63.29
5484;BME280;2764;48.794;8.326;2022-08-05T05:26:17;99856.34;;;25.10;63.24
5484;BME280;2764;48.794;8.326;2022-08-05T05:27:19;99852.00;;;25.09;64.69
5484;BME280;2764;48.794;8.326;2022-08-05T05:28:21;99844.78;;;25.09;65.26
5484;BME280;2764;48.794;8.326;2022-08-05T05:29:25;99841.41;;;25.07;66.29
5484;BME280;2764;48.794;8.326;2022-08-05T05:30:46;99828.16;;;24.98;72.83
5484;BME280;2764;48.794;8.326;2022-08-05T05:31:50;99790.56;;;24.64;80.34
5484;BME280;2764;48.794;8.326;2022-08-05T05:32:53;99806.78;;;24.63;80.42
5484;BME280;2764;48.794;8.326;2022-08-05T05:33:55;99805.63;;;24.48;83.06
5484;BME280;2764;48.794;8.326;2022-08-05T05:35:01;99827.00;;;24.30;79.67
5484;BME280;2764;48.794;8.326;2022-08-05T05:36:06;99818.91;;;23.95;80.43
5484;BME280;2764;48.794;8.326;2022-08-05T05:37:13;99830.88;;;23.63;86.37
5484;BME280;2764;48.794;8.326;2022-08-05T05:38:16;99827.63;;;23.23;94.88
5484;BME280;2764;48.794;8.326;2022-08-05T05:39:27;99817.31;;;22.82;97.61
5484;BME280;2764;48.794;8.326;2022-08-05T05:40:35;99819.69;;;22.37;100.00
5484;BME280;2764;48.794;8.326;2022-08-05T05:41:37;99827.19;;;22.03;100.00
5484;BME280;2764;48.794;8.326;2022-08-05T05:42:42;99821.59;;;21.66;100.00
5484;BME280;2764;48.794;8.326;2022-08-05T05:43:47;99833.56;;;21.42;100.00
5484;BME280;2764;48.794;8.326;2022-08-05T05:45:00;99820.69;;;21.17;100.00
5484;BME280;2764;48.794;8.326;2022-08-05T05:46:03;99807.13;;;20.99;100.00
5484;BME280;2764;48.794;8.326;2022-08-05T05:47:07;99826.00;;;20.96;100.00
5484;BME280;2764;48.794;8.326;2022-08-05T05:48:22;99784.38;;;20.65;100.00
5484;BME280;2764;48.794;8.326;2022-08-05T05:49:28;99814.44;;;20.86;100.00
5484;BME280;2764;48.794;8.326;2022-08-05T05:50:29;99827.88;;;20.84;100.00
5484;BME280;2764;48.794;8.326;2022-08-05T05:51:34;99825.34;;;20.83;100.00
5484;BME280;2764;48.794;8.326;2022-08-05T05:52:51;99826.44;;;20.80;100.00
5484;BME280;2764;48.794;8.326;2022-08-05T05:53:52;99828.25;;;20.80;100.00
5484;BME280;2764;48.794;8.326;2022-08-05T05:55:00;99830.22;;;20.78;100.00
5484;BME280;2764;48.794;8.326;2022-08-05T05:56:07;99831.75;;;20.80;100.00
5484;BME280;2764;48.794;8.326;2022-08-05T05:57:09;99827.88;;;20.84;100.00
5484;BME280;2764;48.794;8.326;2022-08-05T05:58:19;99822.03;;;20.90;100.00
5484;BME280;2764;48.794;8.326;2022-08-05T05:59:31;99827.28;;;21.02;100.00
5484;BME280;2764;48.794;8.326;2022-08-05T06:00:40;99824.28;;;21.06;100.00
5484;BME280;2764;48.794;8.326;2022-08-05T06:01:46;99828.97;;;21.02;100.00
5484;BME280;2764;48.794;8.326;2022-08-05T06:03:00;99834.56;;;20.99;100.00
5484;BME280;2764;48.794;8.326;2022-08-05T06:04:03;99833.56;;;20.80;100.00
5484;BME280;2764;48.794;8.326;2022-08-05T06:05:09;99833.72;;;20.78;100.00
5484;BME280;2764;48.794;8.326;2022-08-05T06:06:17;99833.41;;;20.61;100.00
5484;BME280;2764;48.794;8.326;2022-08-05T06:07:22;99834.25;;;20.61;100.00
5484;BME280;2764;48.794;8.326;2022-08-05T06:08:42;99832.22;;;20.65;100.00
5484;BME280;2764;48.794;8.326;2022-08-05T06:09:49;99835.59;;;20.67;100.00
5484;BME280;2764;48.794;8.326;2022-08-05T06:11:03;99836.16;;;20.70;100.00
5484;BME280;2764;48.794;8.326;2022-08-05T06:12:07;99817.94;;;20.66;100.00
5484;BME280;2764;48.794;8.326;2022-08-05T06:13:12;99832.66;;;20.70;100.00
5484;BME280;2764;48.794;8.326;2022-08-05T06:14:14;99837.16;;;20.69;100.00
5484;BME280;2764;48.794;8.326;2022-08-05T06:15:17;99832.16;;;20.76;100.00
5484;BME280;2764;48.794;8.326;2022-08-05T06:16:24;99840.91;;;20.87;100.00
5484;BME280;2764;48.794;8.326;2022-08-05T06:17:33;99850.38;;;21.01;100.00
5484;BME280;2764;48.794;8.326;2022-08-05T06:18:53;99851.44;;;21.10;100.00
5484;BME280;2764;48.794;8.326;2022-08-05T06:19:55;99844.47;;;21.18;100.00
5484;BME280;2764;48.794;8.326;2022-08-05T06:21:00;99839.13;;;21.29;100.00
5484;BME280;2764;48.794;8.326;2022-08-05T06:22:03;99839.13;;;21.29;100.00
5484;BME280;2764;48.794;8.326;2022-08-05T06:23:06;99842.47;;;21.31;100.00
5484;BME280;2764;48.794;8.326;2022-08-05T06:24:08;99852.00;;;21.34;100.00
5484;BME280;2764;48.794;8.326;2022-08-05T06:25:12;99853.56;;;21.36;100.00
5484;BME280;2764;48.794;8.326;2022-08-05T06:26:34;99854.91;;;21.51;100.00
5484;BME280;2764;48.794;8.326;2022-08-05T06:27:36;99850.06;;;21.66;100.00
5484;BME280;2764;48.794;8.326;2022-08-05T06:28:58;99857.69;;;21.80;100.00